Time;durP1;ratioP1;P1;durP2;ratioP2;P2;SDS_P1;SDS_P2;PMS_P1;PMS_P2;Temp;Humidity;BMP_temperature;BMP_pressure;BME280_temperature;BME280_humidity;BME280_pressure;Samples;Min_cycle;Max_cycle;Signal;HPM_P1;HPM_P2
2022/05/25 00:00:10;;;;;;;4.00;2.20;;;;;;;10.14;100.00;101052.91;5055892;28;20472;-61
2022/05/25 00:02:37;;;;;;;4.45;2.15;;;;;;;10.14;100.00;101048.50;5074062;28;20480;-65
2022/05/25 00:05:04;;;;;;;6.15;2.63;;;;;;;10.15;100.00;101042.34;5056041;28;20028;-61
2022/05/25 00:07:30;;;;;;;4.50;2.50;;;;;;;10.12;100.00;101034.50;5074009;28;20037;-63
2022/05/25 00:09:55;;;;;;;8.55;2.95;;;;;;;10.19;100.00;101044.91;5073830;28;20044;-63
2022/05/25 00:12:21;;;;;;;9.55;3.35;;;;;;;10.23;100.00;101047.41;5073867;28;20033;-62
2022/05/25 00:14:48;;;;;;;10.13;3.78;;;;;;;9.96;100.00;101001.63;5038677;28;20376;-63
2022/05/25 00:17:13;;;;;;;14.02;3.78;;;;;;;9.90;100.00;100982.53;5074145;28;20043;-66
2022/05/25 00:22:23;;;;;;;9.15;3.22;;;;;;;10.37;100.00;101058.41;5073669;28;20105;-63
2022/05/25 00:24:48;;;;;;;6.18;2.92;;;;;;;10.30;100.00;101034.94;5073145;28;20123;-65
2022/05/25 00:27:14;;;;;;;7.40;3.10;;;;;;;10.26;100.00;101028.91;5073382;28;20127;-62
2022/05/25 00:29:39;;;;;;;10.57;3.58;;;;;;;10.32;100.00;101036.63;5055822;28;20043;-62
2022/05/25 00:32:06;;;;;;;5.35;2.42;;;;;;;10.41;100.00;101052.16;5055427;28;20036;-63
2022/05/25 00:34:32;;;;;;;4.78;2.47;;;;;;;10.43;100.00;101054.72;5055573;28;20027;-62
2022/05/25 00:36:57;;;;;;;5.82;2.55;;;;;;;10.06;100.00;100989.09;5038970;28;20032;-63
2022/05/25 00:39:23;;;;;;;6.55;2.53;;;;;;;10.47;100.00;101053.75;5055514;28;20040;-62
2022/05/25 00:41:50;;;;;;;4.45;1.98;;;;;;;10.15;100.00;101007.28;5073522;28;20082;-61
2022/05/25 00:44:16;;;;;;;2.80;2.30;;;;;;;10.33;100.00;101048.00;5055269;28;20024;-62
2022/05/25 00:46:41;;;;;;;6.40;2.08;;;;;;;10.40;100.00;101063.56;5038566;28;20031;-62
2022/05/25 00:49:13;;;;;;;5.15;2.85;;;;;;;10.33;100.00;101042.75;5075184;28;20101;-64
2022/05/25 00:51:51;;;;;;;4.82;2.10;;;;;;;10.45;100.00;101066.94;5055221;28;20411;-62
2022/05/25 00:54:24;;;;;;;3.15;2.13;;;;;;;10.42;100.00;101064.38;5054972;28;20051;-63
2022/05/25 00:56:51;;;;;;;4.22;2.08;;;;;;;10.22;100.00;101029.88;5072864;28;20048;-64
2022/05/25 00:59:29;;;;;;;6.50;2.25;;;;;;;10.46;100.00;101079.19;5037821;28;20033;-62
2022/05/25 01:01:55;;;;;;;5.80;1.77;;;;;;;10.44;100.00;101088.03;5072906;28;20459;-64
2022/05/25 01:04:20;;;;;;;5.47;2.10;;;;;;;10.40;100.00;101079.38;5054939;28;20036;-64
2022/05/25 01:06:52;;;;;;;3.15;2.38;;;;;;;10.21;100.00;101037.81;5072758;28;20098;-62
2022/05/25 01:09:52;;;;;;;9.73;2.67;;;;;;;10.42;100.00;101082.81;5072971;28;20036;-61
2022/05/25 01:12:59;;;;;;;5.70;2.30;;;;;;;10.31;100.00;101058.56;5054854;28;20036;-64
2022/05/25 01:15:27;;;;;;;5.30;2.58;;;;;;;10.34;100.00;101086.56;4971423;28;20035;-62
2022/05/25 01:18:04;;;;;;;4.07;2.33;;;;;;;10.30;100.00;101080.53;5057316;28;20487;-63
2022/05/25 01:20:50;;;;;;;4.03;2.28;;;;;;;10.27;100.00;101077.13;5072361;28;20082;-62
2022/05/25 01:23:26;;;;;;;7.80;3.00;;;;;;;10.26;100.00;101086.78;5072725;28;20082;-62
2022/05/25 01:26:10;;;;;;;6.63;2.47;;;;;;;10.16;100.00;101067.75;5054697;28;20024;-64
2022/05/25 01:28:46;;;;;;;4.28;2.90;;;;;;;10.20;100.00;101076.41;5071843;28;20032;-61
2022/05/25 01:31:17;;;;;;;5.30;2.60;;;;;;;10.10;100.00;101061.75;5072766;28;20124;-62
2022/05/25 01:33:45;;;;;;;11.07;4.18;;;;;;;10.19;100.00;101066.78;5054503;28;20035;-62
2022/05/25 01:36:33;;;;;;;8.85;4.00;;;;;;;10.28;100.00;101090.22;5054485;28;20123;-62
2022/05/25 01:39:05;;;;;;;8.55;4.43;;;;;;;10.22;100.00;101061.44;5054353;28;20086;-61
2022/05/25 01:41:52;;;;;;;11.57;4.90;;;;;;;9.98;100.00;101025.28;5054375;28;20430;-62
2022/05/25 01:44:21;;;;;;;8.63;5.05;;;;;;;9.99;100.00;101027.84;5054112;28;20035;-62
2022/05/25 01:46:50;;;;;;;11.98;5.15;;;;;;;9.94;100.00;101013.97;5054590;28;20044;-63
2022/05/25 01:49:19;;;;;;;12.82;6.00;;;;;;;10.30;100.00;101095.47;5058284;28;20044;-61
2022/05/25 01:51:50;;;;;;;13.43;6.28;;;;;;;10.32;100.00;101078.72;5091068;28;20100;-62
2022/05/25 01:54:19;;;;;;;13.23;7.28;;;;;;;10.07;100.00;101046.03;5091078;28;20471;-63
2022/05/25 01:56:47;;;;;;;13.13;6.93;;;;;;;10.31;100.00;101098.03;5091011;28;20457;-63
2022/05/25 01:59:14;;;;;;;14.23;9.15;;;;;;;10.26;100.00;101080.66;5091111;28;20047;-61
2022/05/25 02:04:44;;;;;;;13.63;9.32;;;;;;;10.28;100.00;101100.75;5092130;28;20477;-65
2022/05/25 02:07:22;;;;;;;16.83;9.30;;;;;;;10.29;100.00;101105.13;5091062;28;20115;-63
2022/05/25 02:10:10;;;;;;;17.27;9.40;;;;;;;10.22;100.00;101106.16;5091026;28;20036;-63
2022/05/25 02:13:24;;;;;;;18.75;10.35;;;;;;;10.19;100.00;101087.84;5091984;28;20390;-63
2022/05/25 02:16:19;;;;;;;20.77;10.80;;;;;;;10.17;100.00;101092.28;5074411;28;20048;-62
2022/05/25 02:19:08;;;;;;;24.38;11.70;;;;;;;10.15;100.00;101097.59;5092145;28;20039;-64
2022/05/25 02:21:47;;;;;;;20.65;11.43;;;;;;;10.18;100.00;101095.78;5074222;28;20032;-63
2022/05/25 02:24:38;;;;;;;19.75;12.40;;;;;;;10.12;100.00;101096.78;5091870;28;20032;-61
2022/05/25 02:27:05;;;;;;;;;;;;;;;10.17;100.00;101108.06;5086095;28;20051;-61
2022/05/25 02:29:44;;;;;;;18.13;12.75;;;;;;;10.08;100.00;101093.34;5091970;28;19912;-62
2022/05/25 02:32:14;;;;;;;20.85;13.40;;;;;;;9.84;100.00;101062.44;5090489;28;20050;-63
2022/05/25 02:34:42;;;;;;;25.42;15.05;;;;;;;9.74;100.00;101046.94;5090692;28;20024;-61
2022/05/25 02:37:08;;;;;;;20.40;14.10;;;;;;;10.01;100.00;101098.84;5090554;28;20096;-62
2022/05/25 02:39:34;;;;;;;25.15;15.43;;;;;;;9.61;100.00;101028.84;5094459;28;20058;-63
2022/05/25 02:41:59;;;;;;;20.38;13.95;;;;;;;9.84;100.00;101072.06;5094765;28;20036;-64
2022/05/25 02:44:25;;;;;;;21.80;14.82;;;;;;;9.99;100.00;101100.63;5094624;28;20036;-61
2022/05/25 02:46:51;;;;;;;25.48;16.30;;;;;;;9.97;100.00;101103.28;5094469;28;20036;-63
2022/05/25 02:49:17;;;;;;;24.75;15.60;;;;;;;9.93;100.00;101106.03;5077160;28;20056;-61
2022/05/25 02:51:43;;;;;;;21.92;16.92;;;;;;;9.83;100.00;101100.16;5094233;28;20032;-62
2022/05/25 02:54:08;;;;;;;25.42;15.35;;;;;;;9.88;100.00;101102.66;5094455;28;20039;-62
2022/05/25 02:56:34;;;;;;;28.77;16.55;;;;;;;9.81;100.00;101103.69;5095591;28;20070;-63
2022/05/25 02:58:59;;;;;;;24.40;16.95;;;;;;;9.90;100.00;101114.84;5094359;28;20035;-63
2022/05/25 03:01:24;;;;;;;23.48;17.35;;;;;;;9.89;100.00;101121.03;5077162;28;20028;-62
2022/05/25 03:03:50;;;;;;;25.05;17.92;;;;;;;9.55;100.00;101062.28;5094135;28;20089;-62
2022/05/25 03:06:16;;;;;;;25.25;16.83;;;;;;;9.83;100.00;101102.78;5093949;28;20032;-62
2022/05/25 03:08:41;;;;;;;28.25;18.27;;;;;;;9.86;100.00;101130.75;5095492;28;20036;-64
2022/05/25 03:11:08;;;;;;;26.13;17.25;;;;;;;9.50;100.00;101070.31;5095213;28;20113;-62
2022/05/25 03:13:35;;;;;;;30.88;18.70;;;;;;;9.49;100.00;101060.69;5095254;28;20043;-62
2022/05/25 03:16:02;;;;;;;31.60;19.48;;;;;;;9.92;100.00;101138.50;5093907;28;20028;-64
2022/05/25 03:18:28;;;;;;;29.70;18.90;;;;;;;9.63;100.00;101083.16;5095243;28;20077;-65
2022/05/25 03:20:53;;;;;;;26.92;19.02;;;;;;;9.96;100.00;101138.38;5095365;28;20471;-63
2022/05/25 03:23:18;;;;;;;30.85;18.83;;;;;;;9.57;100.00;101077.13;5095145;28;20407;-63
2022/05/25 03:25:45;;;;;;;32.90;19.45;;;;;;;9.89;100.00;101133.31;5095095;28;20054;-62
2022/05/25 03:28:10;;;;;;;28.92;19.48;;;;;;;9.78;100.00;101128.31;5095006;28;20411;-62
2022/05/25 03:30:35;;;;;;;28.33;19.23;;;;;;;9.83;100.00;101129.06;5076952;28;20035;-64
2022/05/25 03:33:01;;;;;;;28.00;19.95;;;;;;;9.95;100.00;101156.84;5095103;28;20043;-63
2022/05/25 03:35:27;;;;;;;31.17;18.60;;;;;;;9.89;100.00;101144.72;5094812;28;20051;-64
2022/05/25 03:37:52;;;;;;;30.52;19.10;;;;;;;9.70;100.00;101100.47;5094699;28;20414;-66
2022/05/25 03:40:18;;;;;;;29.95;18.98;;;;;;;9.77;100.00;101102.94;5093249;28;20067;-62
2022/05/25 03:42:45;;;;;;;31.15;19.08;;;;;;;9.57;100.00;101050.00;5094615;28;20032;-64
2022/05/25 03:45:11;;;;;;;27.90;18.00;;;;;;;10.25;100.00;101152.56;5094484;28;20107;-64
2022/05/25 03:47:37;;;;;;;30.73;18.13;;;;;;;10.29;100.00;101154.22;5094448;28;20027;-64
2022/05/25 03:50:03;;;;;;;31.35;16.42;;;;;;;10.20;100.00;101134.28;5083001;28;20094;-63
2022/05/25 03:52:28;;;;;;;31.48;18.40;;;;;;;10.03;100.00;101118.06;5056333;28;20036;-61
2022/05/25 03:54:54;;;;;;;28.65;18.02;;;;;;;10.23;100.00;101163.16;5074216;28;20028;-66
2022/05/25 03:57:19;;;;;;;27.55;17.77;;;;;;;9.93;100.00;101101.63;5056088;28;20044;-65
2022/05/25 03:59:45;;;;;;;31.38;18.10;;;;;;;10.24;100.00;101146.47;5073973;28;20032;-64
2022/05/25 04:02:11;;;;;;;30.08;17.40;;;;;;;10.29;100.00;101141.06;5074004;28;20372;-64
2022/05/25 04:04:36;;;;;;;29.35;18.65;;;;;;;10.34;100.00;101147.94;5074216;28;20116;-64
2022/05/25 04:07:02;;;;;;;27.33;18.65;;;;;;;10.38;100.00;101152.22;5073928;28;20036;-60
2022/05/25 04:09:27;;;;;;;27.85;19.25;;;;;;;10.33;100.00;101135.72;5073702;28;20073;-62
2022/05/25 04:11:52;;;;;;;30.15;18.85;;;;;;;10.47;100.00;101156.38;5056070;28;20120;-63
2022/05/25 04:14:18;;;;;;;30.00;18.40;;;;;;;10.53;100.00;101156.22;5074358;28;20439;-66
2022/05/25 04:16:44;;;;;;;29.05;18.60;;;;;;;10.61;100.00;101156.88;5073837;28;20681;-62
2022/05/25 04:19:09;;;;;;;32.72;19.38;;;;;;;10.66;100.00;101158.47;5074291;28;20039;-61
2022/05/25 04:21:35;;;;;;;27.90;18.67;;;;;;;10.67;100.00;101154.94;5073596;28;20041;-62
2022/05/25 04:24:01;;;;;;;34.63;19.73;;;;;;;10.47;100.00;101101.97;5073631;28;20479;-64
2022/05/25 04:26:28;;;;;;;27.23;18.75;;;;;;;10.51;100.00;101086.94;5073580;28;20040;-63
2022/05/25 04:28:54;;;;;;;28.20;19.05;;;;;;;10.91;100.00;101150.75;5055485;28;20020;-66
2022/05/25 04:31:19;;;;;;;30.73;18.23;;;;;;;10.92;100.00;101138.41;5055640;28;20139;-63
2022/05/25 04:33:44;;;;;;;28.23;18.77;;;;;;;11.04;100.00;101152.09;5056020;28;20154;-62
2022/05/25 04:36:10;;;;;;;23.85;18.83;;;;;;;11.05;100.00;101139.81;5073416;28;20096;-62
2022/05/25 04:38:36;;;;;;;30.02;18.70;;;;;;;11.10;100.00;101151.06;5055586;28;20082;-64
2022/05/25 04:41:02;;;;;;;26.85;18.20;;;;;;;10.85;100.00;101105.28;5055376;28;20123;-63
2022/05/25 04:43:27;;;;;;;28.77;17.70;;;;;;;11.13;100.00;101145.69;5073105;28;20093;-62
2022/05/25 04:45:53;;;;;;;26.30;17.83;;;;;;;11.11;100.00;101139.63;5073028;28;20422;-64
2022/05/25 04:48:21;;;;;;;25.83;17.65;;;;;;;10.89;100.00;101093.75;5055358;28;20040;-62
2022/05/25 04:50:47;;;;;;;27.40;16.92;;;;;;;10.87;100.00;101078.00;5084624;28;20667;-63
2022/05/25 04:53:14;;;;;;;25.70;17.48;;;;;;;10.90;100.00;101080.53;5093187;28;20036;-61
2022/05/25 04:58:25;;;;;;;26.13;18.27;;;;;;;11.32;100.00;101139.00;5093203;28;20051;-63
2022/05/25 05:00:51;;;;;;;27.95;18.80;;;;;;;11.13;100.00;101085.09;5093306;28;20040;-63
2022/05/25 05:03:17;;;;;;;26.17;18.33;;;;;;;11.57;100.00;101145.22;5093133;28;20035;-62
2022/05/25 05:05:43;;;;;;;27.38;18.40;;;;;;;11.71;100.00;101127.19;5093181;28;20040;-64
2022/05/25 05:08:08;;;;;;;26.38;19.27;;;;;;;11.48;100.00;101078.72;5093045;28;20399;-62
2022/05/25 05:10:34;;;;;;;24.25;18.27;;;;;;;11.90;100.00;101143.31;5092914;28;20032;-62
2022/05/25 05:13:04;;;;;;;26.27;19.27;;;;;;;12.08;100.00;101147.09;5093051;28;20043;-62
2022/05/25 05:15:32;;;;;;;24.88;18.05;;;;;;;12.21;100.00;101137.84;5092958;28;20093;-61
2022/05/25 05:17:57;;;;;;;28.90;18.55;;;;;;;12.29;100.00;101143.72;5092794;28;20032;-62
2022/05/25 05:20:22;;;;;;;25.33;17.35;;;;;;;12.33;100.00;101146.22;5091426;28;20035;-63
2022/05/25 05:22:48;;;;;;;24.27;17.30;;;;;;;12.41;100.00;101146.81;5092713;28;20028;-62
2022/05/25 05:25:13;;;;;;;22.75;17.98;;;;;;;12.20;100.00;101096.56;5092612;28;20523;-62
2022/05/25 05:27:38;;;;;;;23.33;17.02;;;;;;;12.48;100.00;101144.81;5092517;28;20026;-62
2022/05/25 05:30:06;;;;;;;23.77;17.83;;;;;;;12.47;100.00;101156.28;5091398;28;20074;-63
2022/05/25 05:32:31;;;;;;;23.90;19.20;;;;;;;12.24;100.00;101120.13;5092051;28;20070;-62
2022/05/25 05:34:57;;;;;;;30.38;19.30;;;;;;;12.22;100.00;101107.91;5091224;28;20054;-64
2022/05/25 05:37:52;;;;;;;28.77;18.85;;;;;;;12.63;100.00;101154.84;5091947;28;20042;-62
2022/05/25 05:40:19;;;;;;;24.40;18.15;;;;;;;12.41;100.00;101103.69;5069266;28;20047;-61
2022/05/25 05:42:45;;;;;;;20.95;17.63;;;;;;;12.83;100.00;101147.06;5090908;28;20035;-61
2022/05/25 05:45:22;;;;;;;23.15;19.15;;;;;;;12.78;100.00;101101.44;5073937;28;20028;-62
2022/05/25 05:47:52;;;;;;;23.38;19.15;;;;;;;13.10;100.00;101162.84;5090330;28;20103;-64
2022/05/25 05:50:22;;;;;;;23.27;18.33;;;;;;;13.12;100.00;101167.13;5090700;28;20052;-63
2022/05/25 05:52:48;;;;;;;26.20;19.80;;;;;;;13.21;100.00;101169.44;5090948;28;20031;-62
2022/05/25 05:55:14;;;;;;;22.30;18.83;;;;;;;13.33;100.00;101176.91;5092259;28;20040;-63
2022/05/25 05:57:39;;;;;;;22.92;19.77;;;;;;;13.21;100.00;101116.56;5074114;28;20028;-63
2022/05/25 06:00:07;;;;;;;20.58;17.95;;;;;;;13.58;100.00;101160.94;5092033;28;20039;-60
2022/05/25 06:02:32;;;;;;;23.05;18.88;;;;;;;13.44;100.00;101131.53;5090435;28;20498;-61
2022/05/25 06:04:57;;;;;;;23.85;17.83;;;;;;;13.59;100.00;101156.50;5091960;28;20032;-61
2022/05/25 06:07:23;;;;;;;22.70;18.60;;;;;;;13.67;100.00;101186.16;5091869;28;20028;-61
2022/05/25 06:09:48;;;;;;;20.45;18.38;;;;;;;13.74;100.00;101188.50;5092222;28;20147;-61
2022/05/25 06:12:14;;;;;;;22.17;17.92;;;;;;;13.95;100.00;101200.03;5090534;28;20335;-60
2022/05/25 06:14:41;;;;;;;23.45;18.75;;;;;;;14.12;100.00;101188.75;5091268;28;20028;-61
2022/05/25 06:19:51;;;;;;;24.80;17.05;;;;;;;14.44;100.00;101191.81;5091655;28;20401;-61
2022/05/25 06:22:18;;;;;;;19.25;17.05;;;;;;;14.55;100.00;101204.56;5090332;28;20036;-62
2022/05/25 06:24:46;;;;;;;24.80;16.88;;;;;;;14.41;100.00;101165.44;5091824;28;20032;-62
2022/05/25 06:27:14;;;;;;;27.20;17.65;;;;;;;14.58;100.00;101207.09;5091818;28;20169;-62
2022/05/25 06:29:43;;;;;;;19.23;15.73;;;;;;;14.08;100.00;101164.19;5091811;28;20047;-62
2022/05/25 06:32:09;;;;;;;20.50;18.02;;;;;;;14.42;100.00;101230.72;5091957;28;20038;-62
2022/05/25 06:34:38;;;;;;;22.20;17.88;;;;;;;14.37;100.00;101222.09;5091900;28;20160;-60
2022/05/25 06:37:05;;;;;;;19.65;17.02;;;;;;;14.32;100.00;101226.75;5090478;28;20032;-61
2022/05/25 06:39:37;;;;;;;21.92;17.15;;;;;;;13.99;100.00;101178.66;5073528;28;20115;-61
2022/05/25 06:42:03;;;;;;;22.80;17.67;;;;;;;14.10;100.00;101205.53;5090382;28;20032;-61
2022/05/25 06:44:29;;;;;;;22.38;17.98;;;;;;;14.33;100.00;101238.19;5091444;28;20043;-62
2022/05/25 06:46:54;;;;;;;22.35;17.42;;;;;;;14.48;100.00;101237.53;5091536;28;20032;-62
2022/05/25 06:49:20;;;;;;;18.33;16.15;;;;;;;14.64;100.00;101231.53;5087004;28;20049;-61
2022/05/25 06:51:45;;;;;;;21.15;16.65;;;;;;;14.70;100.00;101235.72;5071438;28;20037;-61
2022/05/25 06:54:15;;;;;;;17.98;16.08;;;;;;;14.76;100.00;101237.25;5071316;28;20033;-62
2022/05/25 06:56:41;;;;;;;24.25;16.58;;;;;;;14.65;100.00;101212.03;5053446;28;20226;-61
2022/05/25 06:59:07;;;;;;;22.63;17.15;;;;;;;14.91;100.00;101241.88;5031550;28;20491;-62
2022/05/25 07:01:33;;;;;;;20.48;16.60;;;;;;;14.74;100.00;101189.59;5036593;28;20391;-61
2022/05/25 07:03:59;;;;;;;19.00;16.17;;;;;;;15.33;100.00;101245.25;5069793;28;20033;-60
2022/05/25 07:06:25;;;;;;;17.05;15.25;;;;;;;15.20;100.00;101191.94;5071178;28;20044;-61
2022/05/25 07:08:51;;;;;;;16.17;14.35;;;;;;;15.53;100.00;101210.72;5056091;28;20082;-63
2022/05/25 07:11:17;;;;;;;15.98;14.45;;;;;;;16.01;100.00;101244.72;5050927;28;20099;-60
2022/05/25 07:13:43;;;;;;;17.63;14.40;;;;;;;15.82;100.00;101192.59;5033168;28;20486;-60
2022/05/25 07:16:12;;;;;;;14.63;13.13;;;;;;;16.09;100.00;101234.56;5016807;28;20029;-61
2022/05/25 07:18:38;;;;;;;14.68;12.18;;;;;;;16.00;100.00;101223.53;5033373;28;20025;-60
2022/05/25 07:21:09;;;;;;;13.00;10.77;;;;;;;16.16;100.00;101269.66;5032959;28;20106;-61
2022/05/25 07:23:36;;;;;;;15.35;11.30;;;;;;;15.99;100.00;101224.47;5050968;28;20037;-61
2022/05/25 07:26:02;;;;;;;15.60;12.10;;;;;;;16.25;100.00;101269.22;5035076;28;20119;-60
2022/05/25 07:28:28;;;;;;;14.00;12.30;;;;;;;16.19;100.00;101266.88;5054668;28;20032;-62
2022/05/25 07:30:58;;;;;;;11.57;10.38;;;;;;;16.24;100.00;101289.59;5054667;28;20029;-62
2022/05/25 07:33:24;;;;;;;12.85;11.55;;;;;;;16.32;100.00;101278.59;5036295;28;20108;-61
2022/05/25 07:35:49;;;;;;;14.15;10.95;;;;;;;16.67;100.00;101284.84;5054194;28;20076;-61
2022/05/25 07:38:14;;;;;;;12.32;10.73;;;;;;;17.20;100.00;101290.06;5036313;28;20502;-60
2022/05/25 07:40:41;;;;;;;13.13;10.43;;;;;;;17.56;100.00;101293.47;5054052;28;20040;-60
2022/05/25 07:43:10;;;;;;;16.30;10.65;;;;;;;18.20;100.00;101295.22;5036758;28;20029;-60
2022/05/25 07:45:36;;;;;;;13.80;9.48;;;;;;;18.75;100.00;101308.94;5054283;28;20056;-58
2022/05/25 07:48:02;;;;;;;10.10;7.47;;;;;;;18.77;100.00;101309.69;5054270;28;20039;-60
2022/05/25 07:50:28;;;;;;;8.32;7.53;;;;;;;18.74;100.00;101288.56;5060276;28;20539;-62
2022/05/25 07:52:55;;;;;;;11.65;7.45;;;;;;;19.04;100.00;101260.03;5074118;28;20025;-60
2022/05/25 07:55:21;;;;;;;7.10;6.40;;;;;;;19.25;100.00;101293.44;5072765;28;20029;-62
2022/05/25 07:57:46;;;;;;;7.50;5.82;;;;;;;19.50;100.00;101274.97;5074035;28;20036;-61
2022/05/25 08:00:13;;;;;;;5.80;4.65;;;;;;;19.73;100.00;101267.34;5074164;28;20043;-61
2022/05/25 08:05:43;;;;;;;8.68;5.15;;;;;;;20.18;100.00;101273.25;5074112;28;20106;-60
2022/05/25 08:08:12;;;;;;;9.65;4.45;;;;;;;20.32;100.00;101320.47;5070976;28;20066;-61
2022/05/25 08:10:38;;;;;;;6.13;3.80;;;;;;;20.54;100.00;101320.81;5071707;28;20123;-60
2022/05/25 08:13:06;;;;;;;8.32;3.30;;;;;;;20.56;100.00;101328.72;5071202;28;20127;-61
2022/05/25 08:15:33;;;;;;;6.80;2.55;;;;;;;20.51;100.00;101328.16;5072366;28;20294;-60
2022/05/25 08:17:59;;;;;;;6.97;2.70;;;;;;;20.27;100.00;101325.28;5071699;28;20032;-60
2022/05/25 08:20:24;;;;;;;5.97;2.25;;;;;;;19.76;100.00;101329.41;5072547;28;20088;-59
2022/05/25 08:22:50;;;;;;;8.57;2.67;;;;;;;18.98;100.00;101279.06;5072670;28;20052;-59
2022/05/25 08:25:18;;;;;;;3.95;2.17;;;;;;;18.98;100.00;101333.31;5105183;28;20149;-60
2022/05/25 08:27:43;;;;;;;6.68;1.95;;;;;;;18.83;100.00;101338.66;5071328;28;20043;-60
2022/05/25 08:30:15;;;;;;;5.63;1.83;;;;;;;18.96;100.00;101337.00;5071315;28;20403;-60
2022/05/25 08:32:41;;;;;;;4.45;1.90;;;;;;;18.62;100.00;101270.63;5072955;28;20036;-60
2022/05/25 08:35:07;;;;;;;3.20;1.90;;;;;;;19.23;100.00;101313.16;5071249;28;20038;-60
2022/05/25 08:37:32;;;;;;;5.15;2.03;;;;;;;19.88;100.00;101306.41;5072181;28;20063;-58
2022/05/25 08:39:57;;;;;;;5.18;1.90;;;;;;;19.82;100.00;101280.13;5071107;28;20428;-59
2022/05/25 08:42:26;;;;;;;3.90;1.60;;;;;;;20.59;100.00;101325.84;5104676;28;20032;-61
2022/05/25 08:44:53;;;;;;;3.97;1.73;;;;;;;20.63;100.00;101333.56;5071028;28;20032;-61
2022/05/25 08:47:19;;;;;;;6.03;1.90;;;;;;;21.03;100.00;101333.56;5071511;28;20039;-59
2022/05/25 08:49:47;;;;;;;5.20;1.58;;;;;;;20.87;100.00;101348.94;5063143;28;20049;-60
2022/05/25 08:52:33;;;;;;;4.68;1.17;;;;;;;19.83;100.00;101319.22;5034399;28;20112;-60
2022/05/25 08:55:00;;;;;;;7.85;1.70;;;;;;;18.64;100.00;101290.91;5034048;28;20033;-60
2022/05/25 08:57:32;;;;;;;7.15;1.55;;;;;;;18.16;100.00;101291.00;5033564;28;20090;-60
2022/05/25 09:00:07;;;;;;;3.85;0.90;;;;;;;18.36;100.00;101280.94;5051248;28;20040;-60
2022/05/25 09:03:03;;;;;;;3.97;1.10;;;;;;;19.40;100.00;101343.25;5052142;28;20044;-61
2022/05/25 09:05:55;;;;;;;4.38;1.00;;;;;;;20.35;100.00;101285.53;5052049;28;20048;-60
2022/05/25 09:08:39;;;;;;;3.65;1.00;;;;;;;21.30;100.00;101355.81;5033911;28;20036;-61
2022/05/25 09:11:09;;;;;;;3.00;1.10;;;;;;;21.22;100.00;101320.66;5052018;28;20040;-61
2022/05/25 09:13:40;;;;;;;3.47;0.88;;;;;;;21.21;100.00;101359.97;5033759;28;20189;-58
2022/05/25 09:16:22;;;;;;;2.28;0.80;;;;;;;20.65;100.00;101379.78;5051332;28;20472;-59
2022/05/25 09:19:12;;;;;;;4.60;1.17;;;;;;;20.78;100.00;101329.03;5048546;28;20043;-60
2022/05/25 09:22:05;;;;;;;2.55;1.60;;;;;;;21.17;100.00;101381.69;5036800;28;20103;-60
2022/05/25 09:24:31;;;;;;;6.88;1.13;;;;;;;20.62;100.00;101393.38;5042505;28;20484;-59
2022/05/25 09:26:58;;;;;;;4.45;1.33;;;;;;;19.93;100.00;101387.16;5030314;28;20429;-58
2022/05/25 09:29:24;;;;;;;6.93;1.20;;;;;;;19.96;100.00;101334.38;5053949;28;20036;-59
2022/05/25 09:31:52;;;;;;;2.17;0.88;;;;;;;21.13;100.00;101367.66;5065015;28;20029;-59
2022/05/25 09:34:44;;;;;;;1.90;0.90;;;;;;;21.95;100.00;101385.22;5058605;28;20115;-57
2022/05/25 09:37:27;;;;;;;2.78;0.70;;;;;;;22.67;100.00;101387.09;5031992;28;20033;-60
2022/05/25 09:39:53;;;;;;;4.32;1.17;;;;;;;;;;5032969;28;20021;-59
2022/05/25 09:42:20;;;;;;;1.88;0.70;;;;;;;23.27;nan;101390.50;5059754;28;20109;-60
2022/05/25 09:44:52;;;;;;;4.22;0.70;;;;;;;22.85;nan;101378.50;5058291;28;20052;-60
2022/05/25 09:47:22;;;;;;;6.70;0.93;;;;;;;22.36;nan;101354.41;5049718;28;20091;-58
2022/05/25 09:49:49;;;;;;;3.00;0.57;;;;;;;22.67;nan;101390.63;5054470;28;20040;-60
2022/05/25 09:52:19;;;;;;;1.92;0.80;;;;;;;22.27;nan;101381.06;5044634;28;20041;-61
2022/05/25 09:54:56;;;;;;;4.87;1.30;;;;;;;21.95;nan;101369.13;5045314;28;20074;-61
2022/05/25 09:57:38;;;;;;;2.30;1.08;;;;;;;21.84;nan;101369.84;5036125;28;20290;-62
2022/05/25 10:00:08;;;;;;;3.90;0.90;;;;;;;22.26;nan;101423.13;5045749;28;20025;-60
2022/05/25 10:02:48;;;;;;;3.47;1.10;;;;;;;21.95;nan;101374.47;5043730;28;20101;-59
2022/05/25 10:05:23;;;;;;;2.88;0.70;;;;;;;21.33;nan;101392.22;5054763;28;20135;-59
2022/05/25 10:08:09;;;;;;;3.20;1.02;;;;;;;21.44;nan;101429.84;5050982;28;20043;-59
2022/05/25 10:10:56;;;;;;;1.88;0.68;;;;;;;21.51;nan;101420.44;5032819;28;20472;-60
2022/05/25 10:13:30;;;;;;;2.20;0.43;;;;;;;21.34;nan;101421.56;5051108;28;20499;-60
2022/05/25 10:15:56;;;;;;;3.17;0.85;;;;;;;21.91;nan;101419.41;5033088;28;20079;-62
2022/05/25 10:18:37;;;;;;;3.80;1.83;;;;;;;22.52;nan;101412.31;5051062;28;20116;-58
2022/05/25 10:21:04;;;;;;;2.95;0.82;;;;;;;22.87;nan;101414.16;5032995;28;20547;-58
2022/05/25 10:23:30;;;;;;;2.75;1.02;;;;;;;23.38;nan;101397.75;5051051;28;20455;-58
2022/05/25 10:26:12;;;;;;;2.55;0.80;;;;;;;23.84;nan;101417.44;5033395;28;20271;-59
2022/05/25 10:28:53;;;;;;;1.42;0.75;;;;;;;24.41;nan;101403.00;5032988;28;20033;-60
2022/05/25 10:37:07;;;;;;;3.13;0.73;;;;;;;24.18;nan;101422.84;5014091;28;20037;-62
2022/05/25 10:39:39;;;;;;;3.75;0.80;;;;;;;24.14;nan;101416.00;5056046;28;20119;-59
2022/05/25 10:42:26;;;;;;;1.63;0.40;;;;;;;23.66;nan;101397.34;5050645;28;20071;-61
2022/05/25 10:45:09;;;;;;;2.60;0.60;;;;;;;22.79;nan;101437.16;5034792;28;20056;-60
2022/05/25 10:47:54;;;;;;;5.22;1.00;;;;;;;21.66;nan;101430.94;5055495;28;20546;-61
2022/05/25 10:50:26;;;;;;;1.30;0.73;;;;;;;21.33;nan;101435.94;5060436;28;20076;-60
2022/05/25 10:53:00;;;;;;;4.28;0.80;;;;;;;20.66;nan;101424.31;5066335;28;20032;-59
2022/05/25 10:55:32;;;;;;;2.70;0.65;;;;;;;20.40;nan;101371.63;5052774;28;20024;-62
2022/05/25 10:58:16;;;;;;;1.42;0.40;;;;;;;21.03;nan;101414.72;5040724;28;20020;-60
2022/05/25 11:01:09;;;;;;;1.33;0.63;;;;;;;21.97;nan;101421.66;5058370;28;20040;-59
2022/05/25 11:04:12;;;;;;;1.30;0.43;;;;;;;22.05;nan;101423.78;5059403;28;20038;-61
2022/05/25 11:07:14;;;;;;;1.38;0.63;;;;;;;22.79;nan;101408.50;5059971;28;20021;-60
2022/05/25 11:10:10;;;;;;;0.73;0.60;;;;;;;22.95;nan;101413.56;5059932;28;20403;-60
2022/05/25 11:12:48;;;;;;;1.63;0.60;;;;;;;23.93;nan;101408.59;5041957;28;20683;-60
2022/05/25 11:15:40;;;;;;;5.18;0.60;;;;;;;24.55;nan;101378.50;5069970;28;20064;-59
2022/05/25 11:18:08;;;;;;;2.97;0.90;;;;;;;25.36;nan;101413.03;5063408;28;20035;-60
2022/05/25 11:20:49;;;;;;;2.30;0.93;;;;;;;25.62;nan;101412.53;5059856;28;20550;-61
2022/05/25 11:23:51;;;;;;;3.83;0.80;;;;;;;25.11;nan;101366.59;5069992;28;20111;-60
2022/05/25 11:26:31;;;;;;;2.13;0.68;;;;;;;25.65;nan;101428.44;5048816;28;20024;-57
2022/05/25 11:29:19;;;;;;;1.70;0.93;;;;;;;25.48;nan;101415.53;5056612;28;20044;-59
2022/05/25 11:32:07;;;;;;;1.85;0.70;;;;;;;25.18;nan;101366.94;5066189;28;20029;-58
2022/05/25 11:34:38;;;;;;;2.47;0.65;;;;;;;25.41;nan;101410.78;5045450;28;20028;-59
2022/05/25 11:37:36;;;;;;;1.50;0.50;;;;;;;24.95;nan;101411.97;5069833;28;20037;-65
2022/05/25 11:40:21;;;;;;;3.55;0.70;;;;;;;24.35;nan;101368.53;5023615;28;20051;-60
2022/05/25 11:43:24;;;;;;;3.42;0.60;;;;;;;24.09;nan;101400.19;5058211;28;20032;-63
2022/05/25 11:46:10;;;;;;;2.83;0.75;;;;;;;24.16;nan;101381.78;5060250;28;20078;-60
2022/05/25 11:49:06;;;;;;;3.17;0.55;;;;;;;24.83;nan;101359.13;5041567;28;20475;-58
2022/05/25 11:51:55;;;;;;;1.10;0.35;;;;;;;25.07;nan;101384.00;5057968;28;20071;-59